sensor_id;sensor_type;location;lat;lon;timestamp;pressure;altitude;pressure_sealevel;temperature;humidity
52249;BME280;38541;48.130;8.378;2023-04-03T00:00:34;93191.69;;;2.70;80.18
52249;BME280;38541;48.130;8.378;2023-04-03T00:03:01;93189.06;;;2.77;80.40
52249;BME280;38541;48.130;8.378;2023-04-03T00:05:28;93192.47;;;2.77;79.44
52249;BME280;38541;48.130;8.378;2023-04-03T00:07:54;93188.47;;;2.75;79.31
52249;BME280;38541;48.130;8.378;2023-04-03T00:10:21;93183.88;;;2.70;78.14
52249;BME280;38541;48.130;8.378;2023-04-03T00:12:47;93189.53;;;2.40;77.96
52249;BME280;38541;48.130;8.378;2023-04-03T00:15:14;93185.53;;;2.51;78.91
52249;BME280;38541;48.130;8.378;2023-04-03T00:17:41;93197.09;;;2.48;79.21
52249;BME280;38541;48.130;8.378;2023-04-03T00:20:08;93192.28;;;2.32;79.14
52249;BME280;38541;48.130;8.378;2023-04-03T00:22:34;93192.50;;;2.43;79.37
52249;BME280;38541;48.130;8.378;2023-04-03T00:25:01;93184.13;;;2.48;79.39
52249;BME280;38541;48.130;8.378;2023-04-03T00:27:27;93180.72;;;2.54;78.88
52249;BME280;38541;48.130;8.378;2023-04-03T00:29:54;93174.53;;;2.62;78.96
52249;BME280;38541;48.130;8.378;2023-04-03T00:32:21;93178.69;;;2.70;78.91
52249;BME280;38541;48.130;8.378;2023-04-03T00:34:47;93176.53;;;2.60;78.87
52249;BME280;38541;48.130;8.378;2023-04-03T00:37:14;93182.91;;;2.64;79.02
52249;BME280;38541;48.130;8.378;2023-04-03T00:39:41;93184.53;;;2.59;78.45
52249;BME280;38541;48.130;8.378;2023-04-03T00:42:08;93174.16;;;2.45;78.01
52249;BME280;38541;48.130;8.378;2023-04-03T00:47:02;93178.13;;;2.54;78.47
52249;BME280;38541;48.130;8.378;2023-04-03T00:49:29;93174.94;;;2.59;79.30
52249;BME280;38541;48.130;8.378;2023-04-03T00:51:57;93168.56;;;2.62;78.84
52249;BME280;38541;48.130;8.378;2023-04-03T00:54:25;93172.56;;;2.58;78.47
52249;BME280;38541;48.130;8.378;2023-04-03T00:56:53;93173.34;;;2.51;78.41
52249;BME280;38541;48.130;8.378;2023-04-03T00:59:25;93169.16;;;2.64;78.79
52249;BME280;38541;48.130;8.378;2023-04-03T01:01:54;93158.59;;;2.59;78.14
52249;BME280;38541;48.130;8.378;2023-04-03T01:04:36;93158.19;;;2.62;78.38
52249;BME280;38541;48.130;8.378;2023-04-03T01:07:06;93159.00;;;2.49;78.66
52249;BME280;38541;48.130;8.378;2023-04-03T01:09:34;93164.78;;;2.37;78.20
52249;BME280;38541;48.130;8.378;2023-04-03T01:14:40;93152.19;;;2.54;78.88
52249;BME280;38541;48.130;8.378;2023-04-03T01:25:38;93155.41;;;2.43;78.81
52249;BME280;38541;48.130;8.378;2023-04-03T01:28:07;93153.00;;;2.48;77.74
52249;BME280;38541;48.130;8.378;2023-04-03T01:30:39;93157.00;;;2.44;77.84
52249;BME280;38541;48.130;8.378;2023-04-03T01:33:09;93152.00;;;2.42;78.19
52249;BME280;38541;48.130;8.378;2023-04-03T01:35:35;93151.00;;;2.50;78.30
52249;BME280;38541;48.130;8.378;2023-04-03T01:38:02;93149.59;;;2.54;78.63
52249;BME280;38541;48.130;8.378;2023-04-03T01:40:28;93155.00;;;2.46;77.06
52249;BME280;38541;48.130;8.378;2023-04-03T01:42:55;93150.00;;;2.51;77.50
52249;BME280;38541;48.130;8.378;2023-04-03T01:45:22;93150.41;;;2.48;78.06
52249;BME280;38541;48.130;8.378;2023-04-03T01:47:48;93143.63;;;2.47;77.69
52249;BME280;38541;48.130;8.378;2023-04-03T01:50:15;93151.81;;;2.44;77.99
52249;BME280;38541;48.130;8.378;2023-04-03T01:52:42;93149.41;;;2.42;78.79
52249;BME280;38541;48.130;8.378;2023-04-03T01:55:08;93144.44;;;2.41;77.83
52249;BME280;38541;48.130;8.378;2023-04-03T01:57:35;93147.22;;;2.39;77.80
52249;BME280;38541;48.130;8.378;2023-04-03T02:00:02;93155.59;;;2.35;77.66
52249;BME280;38541;48.130;8.378;2023-04-03T02:02:38;93155.81;;;2.26;77.68
52249;BME280;38541;48.130;8.378;2023-04-03T02:05:05;93157.81;;;2.11;79.45
52249;BME280;38541;48.130;8.378;2023-04-03T02:07:32;93155.22;;;2.11;78.00
52249;BME280;38541;48.130;8.378;2023-04-03T02:09:58;93151.84;;;2.10;78.33
52249;BME280;38541;48.130;8.378;2023-04-03T02:12:25;93149.03;;;2.12;78.64
52249;BME280;38541;48.130;8.378;2023-04-03T02:14:52;93146.66;;;2.10;79.47
52249;BME280;38541;48.130;8.378;2023-04-03T02:17:19;93150.44;;;2.21;80.09
52249;BME280;38541;48.130;8.378;2023-04-03T02:19:46;93147.63;;;2.30;80.06
52249;BME280;38541;48.130;8.378;2023-04-03T02:22:13;93149.41;;;2.36;79.60
52249;BME280;38541;48.130;8.378;2023-04-03T02:24:39;93151.41;;;2.34;79.68
52249;BME280;38541;48.130;8.378;2023-04-03T02:27:06;93147.63;;;2.30;78.62
52249;BME280;38541;48.130;8.378;2023-04-03T02:29:33;93137.06;;;2.18;78.73
52249;BME280;38541;48.130;8.378;2023-04-03T02:31:59;93150.22;;;1.89;80.09
52249;BME280;38541;48.130;8.378;2023-04-03T02:34:26;93150.03;;;2.11;80.20
52249;BME280;38541;48.130;8.378;2023-04-03T02:36:53;93142.06;;;2.19;80.44
52249;BME280;38541;48.130;8.378;2023-04-03T02:39:20;93141.25;;;2.25;80.40
52249;BME280;38541;48.130;8.378;2023-04-03T02:41:47;93146.63;;;2.31;80.45
52249;BME280;38541;48.130;8.378;2023-04-03T02:44:18;93143.44;;;2.28;79.34
52249;BME280;38541;48.130;8.378;2023-04-03T02:46:45;93145.84;;;2.30;79.21
52249;BME280;38541;48.130;8.378;2023-04-03T02:49:11;93132.28;;;2.08;78.85
52249;BME280;38541;48.130;8.378;2023-04-03T02:51:38;93138.25;;;2.15;79.89
52249;BME280;38541;48.130;8.378;2023-04-03T02:54:05;93137.47;;;1.94;79.35
52249;BME280;38541;48.130;8.378;2023-04-03T02:56:34;93144.63;;;1.79;80.43
52249;BME280;38541;48.130;8.378;2023-04-03T02:59:01;93143.25;;;1.96;80.21
52249;BME280;38541;48.130;8.378;2023-04-03T03:01:29;93141.06;;;2.07;80.34
52249;BME280;38541;48.130;8.378;2023-04-03T03:04:01;93142.66;;;2.14;80.61
52249;BME280;38541;48.130;8.378;2023-04-03T03:06:27;93148.25;;;2.18;80.53
52249;BME280;38541;48.130;8.378;2023-04-03T03:08:54;93141.84;;;2.21;80.26
52249;BME280;38541;48.130;8.378;2023-04-03T03:11:20;93140.25;;;2.13;79.16
52249;BME280;38541;48.130;8.378;2023-04-03T03:13:48;93144.84;;;2.18;79.93
52249;BME280;38541;48.130;8.378;2023-04-03T03:16:14;93147.44;;;2.04;78.82
52249;BME280;38541;48.130;8.378;2023-04-03T03:18:41;93140.84;;;1.81;78.70
52249;BME280;38541;48.130;8.378;2023-04-03T03:21:09;93145.81;;;1.69;80.00
52249;BME280;38541;48.130;8.378;2023-04-03T03:23:36;93150.41;;;1.81;79.92
52249;BME280;38541;48.130;8.378;2023-04-03T03:26:05;93141.25;;;1.85;79.78
52249;BME280;38541;48.130;8.378;2023-04-03T03:28:33;93142.03;;;1.85;79.10
52249;BME280;38541;48.130;8.378;2023-04-03T03:31:02;93139.44;;;1.85;78.29
52249;BME280;38541;48.130;8.378;2023-04-03T03:33:30;93138.63;;;1.71;78.58
52249;BME280;38541;48.130;8.378;2023-04-03T03:35:56;93145.22;;;1.67;79.33
52249;BME280;38541;48.130;8.378;2023-04-03T03:38:23;93134.66;;;1.76;79.79
52249;BME280;38541;48.130;8.378;2023-04-03T03:40:50;93136.25;;;1.83;79.18
52249;BME280;38541;48.130;8.378;2023-04-03T03:43:19;93137.47;;;1.81;78.98
52249;BME280;38541;48.130;8.378;2023-04-03T03:45:52;93136.25;;;1.83;79.11
52249;BME280;38541;48.130;8.378;2023-04-03T03:48:20;93138.66;;;1.85;79.37
52249;BME280;38541;48.130;8.378;2023-04-03T03:50:47;93143.03;;;1.91;79.64
52249;BME280;38541;48.130;8.378;2023-04-03T03:53:15;93145.03;;;1.96;79.42
52249;BME280;38541;48.130;8.378;2023-04-03T03:55:42;93147.22;;;1.72;78.53
52249;BME280;38541;48.130;8.378;2023-04-03T03:58:09;93143.03;;;1.78;78.69
52249;BME280;38541;48.130;8.378;2023-04-03T04:00:36;93146.22;;;1.80;78.78
52249;BME280;38541;48.130;8.378;2023-04-03T04:03:03;93144.84;;;1.84;78.56
52249;BME280;38541;48.130;8.378;2023-04-03T04:05:30;93146.03;;;1.88;79.73
52249;BME280;38541;48.130;8.378;2023-04-03T04:07:59;93140.66;;;1.83;78.82
52249;BME280;38541;48.130;8.378;2023-04-03T04:10:26;93148.63;;;1.88;78.63
52249;BME280;38541;48.130;8.378;2023-04-03T04:12:53;93153.00;;;1.94;79.51
52249;BME280;38541;48.130;8.378;2023-04-03T04:15:24;93152.81;;;1.89;78.61
52249;BME280;38541;48.130;8.378;2023-04-03T04:17:52;93151.78;;;1.63;78.50
52249;BME280;38541;48.130;8.378;2023-04-03T04:20:20;93151.72;;;1.43;78.70
52249;BME280;38541;48.130;8.378;2023-04-03T04:22:47;93155.13;;;1.44;79.74
52249;BME280;38541;48.130;8.378;2023-04-03T04:25:15;93148.59;;;1.54;79.87
52249;BME280;38541;48.130;8.378;2023-04-03T04:27:42;93158.97;;;1.61;79.61
52249;BME280;38541;48.130;8.378;2023-04-03T04:30:10;93149.78;;;1.65;80.35
52249;BME280;38541;48.130;8.378;2023-04-03T04:32:37;93157.72;;;1.57;79.35
52249;BME280;38541;48.130;8.378;2023-04-03T04:35:04;93156.13;;;1.49;78.57
52249;BME280;38541;48.130;8.378;2023-04-03T04:37:33;93149.38;;;1.55;79.82
52249;BME280;38541;48.130;8.378;2023-04-03T04:40:00;93158.97;;;1.61;80.60
52249;BME280;38541;48.130;8.378;2023-04-03T04:42:27;93157.16;;;1.68;79.76
52249;BME280;38541;48.130;8.378;2023-04-03T04:44:54;93155.75;;;1.59;79.31
52249;BME280;38541;48.130;8.378;2023-04-03T04:47:20;93148.19;;;1.64;79.06
52249;BME280;38541;48.130;8.378;2023-04-03T04:49:48;93149.00;;;1.71;79.21
52249;BME280;38541;48.130;8.378;2023-04-03T04:52:14;93160.16;;;1.72;79.30
52249;BME280;38541;48.130;8.378;2023-04-03T04:54:41;93151.19;;;1.61;78.34
52249;BME280;38541;48.130;8.378;2023-04-03T04:57:08;93155.16;;;1.64;78.97
52249;BME280;38541;48.130;8.378;2023-04-03T04:59:35;93152.16;;;1.60;79.37
52249;BME280;38541;48.130;8.378;2023-04-03T05:02:02;93153.59;;;1.69;78.78
52249;BME280;38541;48.130;8.378;2023-04-03T05:04:30;93155.19;;;1.70;79.00
52249;BME280;38541;48.130;8.378;2023-04-03T05:07:02;93154.16;;;1.58;77.73
52249;BME280;38541;48.130;8.378;2023-04-03T05:09:32;93159.31;;;1.58;78.11
52249;BME280;38541;48.130;8.378;2023-04-03T05:11:59;93169.31;;;1.68;78.97
52249;BME280;38541;48.130;8.378;2023-04-03T05:14:30;93166.13;;;1.73;79.55
52249;BME280;38541;48.130;8.378;2023-04-03T05:17:02;93168.72;;;1.73;77.58
52249;BME280;38541;48.130;8.378;2023-04-03T05:19:32;93170.53;;;1.79;78.66
52249;BME280;38541;48.130;8.378;2023-04-03T05:21:59;93170.53;;;1.85;78.94
52249;BME280;38541;48.130;8.378;2023-04-03T05:24:28;93171.16;;;1.81;77.61
52249;BME280;38541;48.130;8.378;2023-04-03T05:26:54;93181.50;;;1.88;78.03
52249;BME280;38541;48.130;8.378;2023-04-03T05:29:21;93180.13;;;1.85;77.54
52249;BME280;38541;48.130;8.378;2023-04-03T05:31:49;93180.91;;;1.85;77.57
52249;BME280;38541;48.130;8.378;2023-04-03T05:34:16;93179.72;;;1.88;77.57
52249;BME280;38541;48.130;8.378;2023-04-03T05:36:45;93181.31;;;1.89;77.82
52249;BME280;38541;48.130;8.378;2023-04-03T05:39:14;93188.28;;;1.89;76.97
52249;BME280;38541;48.130;8.378;2023-04-03T05:41:42;93185.28;;;1.85;78.03
52249;BME280;38541;48.130;8.378;2023-04-03T05:44:09;93184.09;;;1.81;77.06
52249;BME280;38541;48.130;8.378;2023-04-03T05:46:36;93189.47;;;1.86;76.50
52249;BME280;38541;48.130;8.378;2023-04-03T05:49:05;93192.47;;;1.90;76.90
52249;BME280;38541;48.130;8.378;2023-04-03T05:51:36;93186.50;;;1.89;76.44
52249;BME280;38541;48.130;8.378;2023-04-03T05:54:19;93187.50;;;1.88;75.98
52249;BME280;38541;48.130;8.378;2023-04-03T05:56:51;93194.06;;;1.84;75.88
52249;BME280;38541;48.130;8.378;2023-04-03T05:59:20;93191.06;;;1.87;76.01
52249;BME280;38541;48.130;8.378;2023-04-03T06:01:50;93197.22;;;1.73;75.04
52249;BME280;38541;48.130;8.378;2023-04-03T06:04:16;93190.25;;;1.66;75.37
52249;BME280;38541;48.130;8.378;2023-04-03T06:06:56;93192.00;;;1.59;76.36
52249;BME280;38541;48.130;8.378;2023-04-03T06:09:27;93187.44;;;1.75;76.35
52249;BME280;38541;48.130;8.378;2023-04-03T06:11:55;93191.84;;;1.88;76.55
52249;BME280;38541;48.130;8.378;2023-04-03T06:14:23;93195.06;;;1.83;74.81
52249;BME280;38541;48.130;8.378;2023-04-03T06:16:49;93198.59;;;1.62;74.28
52249;BME280;38541;48.130;8.378;2023-04-03T06:19:16;93191.00;;;1.53;75.88
52249;BME280;38541;48.130;8.378;2023-04-03T06:21:47;93195.56;;;1.45;75.10
52249;BME280;38541;48.130;8.378;2023-04-03T06:24:16;93203.38;;;1.65;75.70
52249;BME280;38541;48.130;8.378;2023-04-03T06:26:43;93202.81;;;1.76;75.74
52249;BME280;38541;48.130;8.378;2023-04-03T06:29:09;93202.00;;;1.82;75.05
52249;BME280;38541;48.130;8.378;2023-04-03T06:31:36;93211.19;;;1.85;74.53
52249;BME280;38541;48.130;8.378;2023-04-03T06:34:03;93210.78;;;1.81;74.47
52249;BME280;38541;48.130;8.378;2023-04-03T06:36:33;93204.63;;;1.89;74.50
52249;BME280;38541;48.130;8.378;2023-04-03T06:38:59;93209.41;;;1.92;74.30
52249;BME280;38541;48.130;8.378;2023-04-03T06:41:26;93216.41;;;2.05;74.10
52249;BME280;38541;48.130;8.378;2023-04-03T06:43:52;93215.22;;;2.01;73.79
52249;BME280;38541;48.130;8.378;2023-04-03T06:46:21;93212.03;;;2.06;74.94
52249;BME280;38541;48.130;8.378;2023-04-03T06:48:48;93214.22;;;2.09;74.68
52249;BME280;38541;48.130;8.378;2023-04-03T06:51:24;93210.03;;;2.08;73.83
52249;BME280;38541;48.130;8.378;2023-04-03T06:53:52;93214.41;;;2.14;73.04
52249;BME280;38541;48.130;8.378;2023-04-03T06:56:18;93214.81;;;2.11;73.52
52249;BME280;38541;48.130;8.378;2023-04-03T06:58:45;93221.19;;;2.08;72.75
52249;BME280;38541;48.130;8.378;2023-04-03T07:01:15;93217.41;;;2.11;72.28
52249;BME280;38541;48.130;8.378;2023-04-03T07:03:42;93225.00;;;2.12;72.21
52249;BME280;38541;48.130;8.378;2023-04-03T07:06:11;93217.59;;;2.16;72.42
52249;BME280;38541;48.130;8.378;2023-04-03T07:08:39;93222.19;;;2.14;73.66
52249;BME280;38541;48.130;8.378;2023-04-03T07:11:06;93223.56;;;1.96;73.01
52249;BME280;38541;48.130;8.378;2023-04-03T07:13:33;93233.75;;;2.05;72.10
52249;BME280;38541;48.130;8.378;2023-04-03T07:15:59;93229.97;;;2.14;72.74
52249;BME280;38541;48.130;8.378;2023-04-03T07:18:26;93232.00;;;2.25;72.56
52249;BME280;38541;48.130;8.378;2023-04-03T07:20:53;93239.13;;;2.10;71.72
52249;BME280;38541;48.130;8.378;2023-04-03T07:23:19;93240.16;;;2.22;72.04
52249;BME280;38541;48.130;8.378;2023-04-03T07:25:47;93234.97;;;2.22;72.04
52249;BME280;38541;48.130;8.378;2023-04-03T07:28:15;93236.19;;;2.26;71.94
52249;BME280;38541;48.130;8.378;2023-04-03T07:30:49;93240.38;;;2.27;70.24
52249;BME280;38541;48.130;8.378;2023-04-03T07:33:17;93241.16;;;2.35;72.10
52249;BME280;38541;48.130;8.378;2023-04-03T07:35:44;93232.59;;;2.41;70.89
52249;BME280;38541;48.130;8.378;2023-04-03T07:38:11;93241.38;;;2.33;70.68
52249;BME280;38541;48.130;8.378;2023-04-03T07:40:39;93240.38;;;2.41;71.87
52249;BME280;38541;48.130;8.378;2023-04-03T07:43:06;93234.59;;;2.52;70.72
52249;BME280;38541;48.130;8.378;2023-04-03T07:45:34;93238.59;;;2.62;71.14
52249;BME280;38541;48.130;8.378;2023-04-03T07:48:02;93244.16;;;2.72;69.64
52249;BME280;38541;48.130;8.378;2023-04-03T07:50:29;93240.78;;;2.65;69.15
52249;BME280;38541;48.130;8.378;2023-04-03T07:52:56;93239.59;;;2.61;69.47
52249;BME280;38541;48.130;8.378;2023-04-03T07:55:24;93235.78;;;2.63;69.00
52249;BME280;38541;48.130;8.378;2023-04-03T07:57:51;93239.38;;;2.62;70.08
52249;BME280;38541;48.130;8.378;2023-04-03T08:00:18;93243.97;;;2.67;69.62
52249;BME280;38541;48.130;8.378;2023-04-03T08:02:45;93248.16;;;2.75;68.80
52249;BME280;38541;48.130;8.378;2023-04-03T08:05:18;93242.78;;;2.76;68.21
52249;BME280;38541;48.130;8.378;2023-04-03T08:07:45;93244.78;;;2.61;69.01
52249;BME280;38541;48.130;8.378;2023-04-03T08:10:12;93247.38;;;2.61;69.42
52249;BME280;38541;48.130;8.378;2023-04-03T08:12:38;93249.53;;;2.43;69.64
52249;BME280;38541;48.130;8.378;2023-04-03T08:15:05;93248.75;;;2.50;69.80
52249;BME280;38541;48.130;8.378;2023-04-03T08:17:33;93248.38;;;2.60;69.59
52249;BME280;38541;48.130;8.378;2023-04-03T08:20:00;93249.16;;;2.87;69.49
52249;BME280;38541;48.130;8.378;2023-04-03T08:22:26;93248.09;;;3.22;69.18
52249;BME280;38541;48.130;8.378;2023-04-03T08:24:53;93252.22;;;3.43;68.63
52249;BME280;38541;48.130;8.378;2023-04-03T08:27:25;93251.78;;;3.53;67.84
52249;BME280;38541;48.130;8.378;2023-04-03T08:29:52;93249.72;;;3.68;66.47
52249;BME280;38541;48.130;8.378;2023-04-03T08:32:19;93250.53;;;3.69;63.84
52249;BME280;38541;48.130;8.378;2023-04-03T08:34:45;93249.44;;;3.38;63.91
52249;BME280;38541;48.130;8.378;2023-04-03T08:37:12;93257.34;;;3.56;66.04
52249;BME280;38541;48.130;8.378;2023-04-03T08:39:38;93254.88;;;3.75;65.20
52249;BME280;38541;48.130;8.378;2023-04-03T08:42:13;93248.06;;;3.81;65.19
52249;BME280;38541;48.130;8.378;2023-04-03T08:44:56;93252.09;;;3.77;63.75
52249;BME280;38541;48.130;8.378;2023-04-03T08:48:08;93247.59;;;3.97;63.85
52249;BME280;38541;48.130;8.378;2023-04-03T08:50:44;93246.00;;;3.96;64.42
52249;BME280;38541;48.130;8.378;2023-04-03T08:53:18;93251.75;;;4.05;63.83
52249;BME280;38541;48.130;8.378;2023-04-03T08:55:48;93244.94;;;4.11;60.69
52249;BME280;38541;48.130;8.378;2023-04-03T08:58:26;93251.88;;;4.17;63.00
52249;BME280;38541;48.130;8.378;2023-04-03T09:01:05;93253.28;;;4.45;61.52
52249;BME280;38541;48.130;8.378;2023-04-03T09:03:39;93259.19;;;4.66;62.20
52249;BME280;38541;48.130;8.378;2023-04-03T09:06:25;93255.09;;;4.77;62.73
52249;BME280;38541;48.130;8.378;2023-04-03T09:09:15;93248.88;;;4.78;60.37
52249;BME280;38541;48.130;8.378;2023-04-03T09:17:38;93248.63;;;4.79;63.01
52249;BME280;38541;48.130;8.378;2023-04-03T09:20:37;93259.38;;;4.90;62.72
52249;BME280;38541;48.130;8.378;2023-04-03T09:23:33;93260.47;;;5.00;61.88
52249;BME280;38541;48.130;8.378;2023-04-03T09:26:09;93255.97;;;4.89;63.24
52249;BME280;38541;48.130;8.378;2023-04-03T09:28:41;93264.59;;;4.90;62.95
52249;BME280;38541;48.130;8.378;2023-04-03T09:31:25;93262.72;;;4.97;60.77
52249;BME280;38541;48.130;8.378;2023-04-03T09:33:59;93261.03;;;4.84;61.51
52249;BME280;38541;48.130;8.378;2023-04-03T09:36:50;93261.25;;;5.01;61.48
52249;BME280;38541;48.130;8.378;2023-04-03T09:39:20;93266.84;;;5.05;61.74
52249;BME280;38541;48.130;8.378;2023-04-03T09:42:02;93265.28;;;5.22;61.77
52249;BME280;38541;48.130;8.378;2023-04-03T09:44:30;93267.25;;;5.27;60.13
52249;BME280;38541;48.130;8.378;2023-04-03T09:46:57;93262.88;;;5.21;61.88
52249;BME280;38541;48.130;8.378;2023-04-03T09:49:24;93266.94;;;5.17;59.64
52249;BME280;38541;48.130;8.378;2023-04-03T09:51:50;93261.03;;;5.28;60.18
52249;BME280;38541;48.130;8.378;2023-04-03T09:54:37;93270.91;;;5.00;60.26
52249;BME280;38541;48.130;8.378;2023-04-03T09:57:12;93267.69;;;4.48;61.79
52249;BME280;38541;48.130;8.378;2023-04-03T09:59:56;93281.13;;;4.06;60.88
52249;BME280;38541;48.130;8.378;2023-04-03T10:02:36;93267.00;;;4.34;61.52
52249;BME280;38541;48.130;8.378;2023-04-03T10:05:26;93269.88;;;4.76;62.37
52249;BME280;38541;48.130;8.378;2023-04-03T10:08:14;93266.81;;;5.30;61.34
52249;BME280;38541;48.130;8.378;2023-04-03T10:10:47;93267.66;;;5.05;58.96
52249;BME280;38541;48.130;8.378;2023-04-03T10:13:19;93264.00;;;4.88;60.39
52249;BME280;38541;48.130;8.378;2023-04-03T10:21:02;93246.56;;;5.32;61.18
52249;BME280;38541;48.130;8.378;2023-04-03T10:23:44;93249.88;;;5.21;58.59
52249;BME280;38541;48.130;8.378;2023-04-03T10:28:57;93248.28;;;5.76;59.59
52249;BME280;38541;48.130;8.378;2023-04-03T10:31:37;93246.44;;;6.13;58.87
52249;BME280;38541;48.130;8.378;2023-04-03T10:34:21;93250.34;;;6.04;57.46
52249;BME280;38541;48.130;8.378;2023-04-03T10:39:52;93246.53;;;5.69;58.15
52249;BME280;38541;48.130;8.378;2023-04-03T10:48:01;93250.25;;;5.62;58.67
52249;BME280;38541;48.130;8.378;2023-04-03T10:50:58;93247.53;;;5.87;59.23
52249;BME280;38541;48.130;8.378;2023-04-03T10:56:30;93246.13;;;6.64;58.10
52249;BME280;38541;48.130;8.378;2023-04-03T11:01:48;93246.66;;;6.54;57.10
52249;BME280;38541;48.130;8.378;2023-04-03T11:04:18;93244.63;;;6.56;57.66
52249;BME280;38541;48.130;8.378;2023-04-03T11:06:50;93239.16;;;6.46;57.52
52249;BME280;38541;48.130;8.378;2023-04-03T11:09:34;93234.88;;;6.21;57.26
52249;BME280;38541;48.130;8.378;2023-04-03T11:14:36;93251.38;;;5.84;56.66
52249;BME280;38541;48.130;8.378;2023-04-03T11:19:50;93247.88;;;5.60;58.36
52249;BME280;38541;48.130;8.378;2023-04-03T11:22:23;93241.34;;;5.51;58.96
52249;BME280;38541;48.130;8.378;2023-04-03T11:25:04;93245.03;;;5.62;58.03
52249;BME280;38541;48.130;8.378;2023-04-03T11:27:55;93237.63;;;5.77;58.13
52249;BME280;38541;48.130;8.378;2023-04-03T11:30:49;93229.34;;;5.99;58.65
52249;BME280;38541;48.130;8.378;2023-04-03T11:33:45;93231.09;;;6.48;59.13
52249;BME280;38541;48.130;8.378;2023-04-03T11:36:25;93221.47;;;6.72;55.71
52249;BME280;38541;48.130;8.378;2023-04-03T11:39:05;93224.47;;;6.21;54.70
52249;BME280;38541;48.130;8.378;2023-04-03T11:41:34;93229.09;;;5.89;55.70
52249;BME280;38541;48.130;8.378;2023-04-03T11:44:06;93229.75;;;5.65;58.37
52249;BME280;38541;48.130;8.378;2023-04-03T11:46:57;93227.88;;;5.54;56.83
52249;BME280;38541;48.130;8.378;2023-04-03T11:49:53;93230.66;;;5.22;57.78
52249;BME280;38541;48.130;8.378;2023-04-03T12:24:25;93227.03;;;5.60;55.79
52249;BME280;38541;48.130;8.378;2023-04-03T12:32:06;93227.94;;;5.66;57.60
52249;BME280;38541;48.130;8.378;2023-04-03T12:37:56;93215.22;;;5.39;56.07
52249;BME280;38541;48.130;8.378;2023-04-03T12:46:04;93214.66;;;5.37;56.64
52249;BME280;38541;48.130;8.378;2023-04-03T12:48:37;93219.34;;;5.28;56.52
52249;BME280;38541;48.130;8.378;2023-04-03T12:51:05;93220.31;;;4.90;57.19
52249;BME280;38541;48.130;8.378;2023-04-03T12:53:33;93220.34;;;5.08;56.20
52249;BME280;38541;48.130;8.378;2023-04-03T12:58:50;93220.38;;;5.46;56.52
52249;BME280;38541;48.130;8.378;2023-04-03T13:01:21;93211.91;;;5.50;56.54
52249;BME280;38541;48.130;8.378;2023-04-03T13:03:56;93210.63;;;5.71;55.34
52249;BME280;38541;48.130;8.378;2023-04-03T13:06:29;93216.13;;;5.82;56.06
52249;BME280;38541;48.130;8.378;2023-04-03T13:08:59;93212.25;;;5.54;55.42
52249;BME280;38541;48.130;8.378;2023-04-03T13:11:34;93201.56;;;5.74;55.15
52249;BME280;38541;48.130;8.378;2023-04-03T13:14:12;93204.38;;;5.72;54.00
52249;BME280;38541;48.130;8.378;2023-04-03T13:16:40;93195.38;;;5.87;55.45
52249;BME280;38541;48.130;8.378;2023-04-03T13:19:16;93202.88;;;5.95;55.77
52249;BME280;38541;48.130;8.378;2023-04-03T13:21:44;93202.63;;;5.85;54.15
52249;BME280;38541;48.130;8.378;2023-04-03T13:24:11;93198.47;;;5.65;54.89
52249;BME280;38541;48.130;8.378;2023-04-03T13:26:41;93203.69;;;5.65;53.91
52249;BME280;38541;48.130;8.378;2023-04-03T13:29:22;93205.41;;;5.71;53.74
52249;BME280;38541;48.130;8.378;2023-04-03T13:31:56;93203.25;;;5.68;55.55
52249;BME280;38541;48.130;8.378;2023-04-03T13:34:26;93207.84;;;5.54;54.67
52249;BME280;38541;48.130;8.378;2023-04-03T13:36:58;93201.53;;;5.62;54.01
52249;BME280;38541;48.130;8.378;2023-04-03T13:39:28;93199.00;;;5.55;53.62
52249;BME280;38541;48.130;8.378;2023-04-03T13:42:01;93202.69;;;5.66;54.46
52249;BME280;38541;48.130;8.378;2023-04-03T13:44:34;93198.47;;;5.65;53.87
52249;BME280;38541;48.130;8.378;2023-04-03T13:47:21;93197.56;;;5.41;52.94
52249;BME280;38541;48.130;8.378;2023-04-03T13:50:01;93195.31;;;5.45;55.50
52249;BME280;38541;48.130;8.378;2023-04-03T13:52:30;93202.31;;;5.63;54.53
52249;BME280;38541;48.130;8.378;2023-04-03T13:55:00;93185.47;;;5.47;53.27
52249;BME280;38541;48.130;8.378;2023-04-03T13:57:31;93200.38;;;5.39;55.32
52249;BME280;38541;48.130;8.378;2023-04-03T13:59:57;93205.16;;;5.05;54.49
52249;BME280;38541;48.130;8.378;2023-04-03T14:02:32;93196.47;;;5.30;55.60
52249;BME280;38541;48.130;8.378;2023-04-03T14:05:01;93201.63;;;5.37;55.33
52249;BME280;38541;48.130;8.378;2023-04-03T14:07:29;93194.00;;;5.35;54.48
52249;BME280;38541;48.130;8.378;2023-04-03T14:09:57;93192.56;;;5.21;53.48
52249;BME280;38541;48.130;8.378;2023-04-03T14:12:27;93202.44;;;5.68;54.41
52249;BME280;38541;48.130;8.378;2023-04-03T14:14:59;93188.22;;;5.82;52.56
52249;BME280;38541;48.130;8.378;2023-04-03T14:17:27;93187.59;;;5.68;52.38
52249;BME280;38541;48.130;8.378;2023-04-03T14:19:55;93190.59;;;5.53;51.32
52249;BME280;38541;48.130;8.378;2023-04-03T14:22:25;93179.84;;;5.12;51.32
52249;BME280;38541;48.130;8.378;2023-04-03T14:24:52;93181.72;;;5.24;53.31
52249;BME280;38541;48.130;8.378;2023-04-03T14:29:54;93187.50;;;5.45;52.00
52249;BME280;38541;48.130;8.378;2023-04-03T14:32:22;93188.22;;;4.96;53.50
52249;BME280;38541;48.130;8.378;2023-04-03T14:34:50;93181.44;;;5.13;53.63
52249;BME280;38541;48.130;8.378;2023-04-03T14:37:20;93179.97;;;5.18;53.04
52249;BME280;38541;48.130;8.378;2023-04-03T14:39:49;93174.69;;;5.06;52.64
52249;BME280;38541;48.130;8.378;2023-04-03T14:42:18;93177.66;;;4.91;53.71
52249;BME280;38541;48.130;8.378;2023-04-03T14:44:46;93172.84;;;5.13;54.35
52249;BME280;38541;48.130;8.378;2023-04-03T14:47:24;93168.91;;;5.04;53.41
52249;BME280;38541;48.130;8.378;2023-04-03T14:49:59;93169.13;;;5.02;54.30
52249;BME280;38541;48.130;8.378;2023-04-03T14:52:31;93178.66;;;4.90;53.24
52249;BME280;38541;48.130;8.378;2023-04-03T14:54:59;93180.88;;;4.67;53.47
52249;BME280;38541;48.130;8.378;2023-04-03T14:57:27;93176.47;;;4.68;55.19
52249;BME280;38541;48.130;8.378;2023-04-03T14:59:54;93174.75;;;4.80;54.51
52249;BME280;38541;48.130;8.378;2023-04-03T15:02:28;93174.59;;;4.75;54.25
52249;BME280;38541;48.130;8.378;2023-04-03T15:04:56;93168.97;;;4.78;54.43